Kairyu — JD2981 — position and weather

sailwx.info

Track history (hours):
 
Tides and Currents Weather Stations Pressure Air Temp Water Temp Dewpoint Dewpoint Depression Visibility Wind Speed Wind Dir Waves Ship Positions

Kairyu

Last reported at 2018-Jan-18 06:46 UTC. Time now 2018-Jan-20 01:13 UTC.
Position N 34°28' E 130°56'.

Length 104 m; draft 6.3 m.

Type: Tanker. MMSI: 431001061.

Date/timePositionNaut miles runAvg speedWind from/ knotsBaromVisibWave heightAir tempDewpointWater temp
2018-Jan-18 06:46N 34°28' E 130°56'414.0
2018-Jan-18 06:29N 34°25' E 130°52'612.6
2018-Jan-18 06:00N 34°20' E 130°48'714.0
2018-Jan-18 05:30N 34°14' E 130°49'713.8
2018-Jan-18 05:00N 34°07' E 130°50'714.2
2018-Jan-18 04:30N 33°60' E 130°53'611.4
2018-Jan-18 04:00N 33°55' E 130°55'713.4
2018-Jan-18 03:30N 33°59' E 131°01'713.9
2018-Jan-18 03:00N 33°55' E 131°08'713.9
2018-Jan-18 02:30N 33°51' E 131°16'714.3
2018-Jan-18 02:00N 33°49' E 131°24'714.1
2018-Jan-18 01:30N 33°46' E 131°31'713.9
2018-Jan-18 01:00N 33°42' E 131°38'1313.4
2018-Jan-18 00:00N 33°33' E 131°50'115.4
2018-Jan-17 23:58N 33°32' E 131°50'  
2018-Jan-10 14:56N 34°52' E 139°48'614.1
2018-Jan-10 14:30N 34°57' E 139°44'611.8
2018-Jan-10 14:00N 35°03' E 139°44'611.9
2018-Jan-10 13:30N 35°09' E 139°45'611.7
2018-Jan-10 13:00N 35°14' E 139°46'611.2
2018-Jan-10 12:30N 35°19' E 139°43'611.1
2018-Jan-10 12:00N 35°25' E 139°44'612.9
2018-Jan-10 11:30N 35°29' E 139°50'611.0
2018-Jan-10 10:59N 35°30' E 139°57'3 7.3
2018-Jan-10 10:30N 35°29' E 140°01'0 0.0
2018-Jan-10 00:33N 35°28' E 140°01'0 1.3
2018-Jan-10 00:30N 35°28' E 140°01'3 6.4
2018-Jan-10 00:00N 35°30' E 139°58'0 0.6
2018-Jan-09 23:30N 35°30' E 139°58'0 0.0
2018-Jan-09 23:00N 35°30' E 139°58'0 0.0
2018-Jan-09 22:27N 35°30' E 139°58'0 0.0
2018-Jan-09 21:57N 35°30' E 139°58'0 0.2
2018-Jan-09 21:30N 35°30' E 139°57'510.5
2018-Jan-09 21:00N 35°28' E 139°52'713.2
2018-Jan-09 20:30N 35°23' E 139°46'611.7
2018-Jan-09 20:00N 35°18' E 139°45'612.3
2018-Jan-09 19:30N 35°12' E 139°47'713.7
2018-Jan-09 19:00N 35°05' E 139°44'612.9
2018-Jan-09 18:30N 34°59' E 139°43'611.4
2018-Jan-09 17:57N 34°54' E 139°47'1010.5
2018-Jan-09 17:01N 34°52' E 139°59'110.0
2018-Jan-09 16:57N 34°52' E 139°60'810.4
2018-Jan-09 16:13N 34°57' E 140°07'210.1
2018-Jan-09 15:59N 34°58' E 140°09'  
Track history (hours):
 
Tides and Currents Weather Stations Pressure Air Temp Water Temp Dewpoint Dewpoint Depression Visibility Wind Speed Wind Dir Waves Ship Positions

Kairyu

Last reported at 2018-Jan-18 06:46 UTC. Time now 2018-Jan-20 01:13 UTC.
Position N 34°28' E 130°56'.

Length 104 m; draft 6.3 m.

Type: Tanker. MMSI: 431001061.

Date/timePositionNaut miles runAvg speedWind from/ knotsBaromVisibWave heightAir tempDewpointWater temp
2018-Jan-18 06:46N 34°28' E 130°56'414.0
2018-Jan-18 06:29N 34°25' E 130°52'612.6
2018-Jan-18 06:00N 34°20' E 130°48'714.0
2018-Jan-18 05:30N 34°14' E 130°49'713.8
2018-Jan-18 05:00N 34°07' E 130°50'714.2
2018-Jan-18 04:30N 33°60' E 130°53'611.4
2018-Jan-18 04:00N 33°55' E 130°55'713.4
2018-Jan-18 03:30N 33°59' E 131°01'713.9
2018-Jan-18 03:00N 33°55' E 131°08'713.9
2018-Jan-18 02:30N 33°51' E 131°16'714.3
2018-Jan-18 02:00N 33°49' E 131°24'714.1
2018-Jan-18 01:30N 33°46' E 131°31'713.9
2018-Jan-18 01:00N 33°42' E 131°38'1313.4
2018-Jan-18 00:00N 33°33' E 131°50'115.4
2018-Jan-17 23:58N 33°32' E 131°50'  
2018-Jan-10 14:56N 34°52' E 139°48'614.1
2018-Jan-10 14:30N 34°57' E 139°44'611.8
2018-Jan-10 14:00N 35°03' E 139°44'611.9
2018-Jan-10 13:30N 35°09' E 139°45'611.7
2018-Jan-10 13:00N 35°14' E 139°46'611.2
2018-Jan-10 12:30N 35°19' E 139°43'611.1
2018-Jan-10 12:00N 35°25' E 139°44'612.9
2018-Jan-10 11:30N 35°29' E 139°50'611.0
2018-Jan-10 10:59N 35°30' E 139°57'3 7.3
2018-Jan-10 10:30N 35°29' E 140°01'0 0.0
2018-Jan-10 00:33N 35°28' E 140°01'0 1.3
2018-Jan-10 00:30N 35°28' E 140°01'3 6.4
2018-Jan-10 00:00N 35°30' E 139°58'0 0.6
2018-Jan-09 23:30N 35°30' E 139°58'0 0.0
2018-Jan-09 23:00N 35°30' E 139°58'0 0.0
2018-Jan-09 22:27N 35°30' E 139°58'0 0.0
2018-Jan-09 21:57N 35°30' E 139°58'0 0.2
2018-Jan-09 21:30N 35°30' E 139°57'510.5
2018-Jan-09 21:00N 35°28' E 139°52'713.2
2018-Jan-09 20:30N 35°23' E 139°46'611.7
2018-Jan-09 20:00N 35°18' E 139°45'612.3
2018-Jan-09 19:30N 35°12' E 139°47'713.7
2018-Jan-09 19:00N 35°05' E 139°44'612.9
2018-Jan-09 18:30N 34°59' E 139°43'611.4
2018-Jan-09 17:57N 34°54' E 139°47'1010.5
2018-Jan-09 17:01N 34°52' E 139°59'110.0
2018-Jan-09 16:57N 34°52' E 139°60'810.4
2018-Jan-09 16:13N 34°57' E 140°07'210.1
2018-Jan-09 15:59N 34°58' E 140°09'  

Dump ship's entire track history